Troutville, Virginia
Current Conditions -  °F | °C
As of 5:54 PM on Thursday 27 Nov 2014 (Local Time) from KROA Reporting Station
Overcast Overcast  
Wind Chill: 29°   Ceiling: 4400
Heat Index: 36°   Visibility: 10mi
Dew Point: 22°   Wind: 9mph
Humidity: 57%   Direction: 320°NW
Pressure: 30.19"   Gusts: NA
Location:  37.42°N, 79.87°W
Report Text: KROA 272254Z 32008KT 10SM OVC044 02/M06 A3019 RMK AO2 SLP230 T00221056
Loading
Personal Weather Stations






























Interactive Weather Map New forecast layout! Learn more

10-Day Weather Forecast

Advertisements
Track Severe Weather on mobile